Anchor, Illinois
Current Conditions -  °F | °C
As of 11:56 AM on Friday 24 Oct 2014 (Local Time) from KBMI Reporting Station
Clear Clear  
Wind Chill: 64°   Ceiling: Unl
Heat Index: 64°   Visibility: 10mi
Dew Point: 54°   Wind: 8mph
Humidity: 70%   Direction: 240°WSW
Pressure: 30.09"   Gusts: NA
Location:  40.57°N, 88.54°W
Report Text: KBMI 241656Z 24007KT 10SM CLR 18/12 A3009 RMK AO2 T01770122 SLP186
Loading
Personal Weather Stations






























Interactive Weather Map New forecast layout! Learn more

10-Day Weather Forecast

Advertisements
Track Severe Weather on mobile